createdAt,value
2022-09-10T00:01:38.539Z,13.65
2022-09-10T00:04:05.323Z,13.92
2022-09-10T00:06:31.780Z,14.03
2022-09-10T00:08:58.252Z,13.98
2022-09-10T00:11:24.755Z,13.94
2022-09-10T00:13:51.473Z,14.01
2022-09-10T00:16:17.925Z,14.14
2022-09-10T00:18:45.362Z,14.29
2022-09-10T00:21:11.782Z,14.20
2022-09-10T00:23:38.162Z,14.26
2022-09-10T00:26:04.726Z,14.18
2022-09-10T00:28:31.545Z,14.16
2022-09-10T00:30:57.913Z,14.35
2022-09-10T00:33:24.430Z,14.66
2022-09-10T00:35:51.171Z,14.30
2022-09-10T00:38:17.703Z,14.28
2022-09-10T00:40:44.309Z,14.49
2022-09-10T00:43:10.809Z,14.27
2022-09-10T00:45:37.249Z,14.01
2022-09-10T00:48:04.368Z,14.20
2022-09-10T00:50:31.058Z,13.99
2022-09-10T00:52:57.642Z,14.14
2022-09-10T00:55:24.329Z,14.00
2022-09-10T00:57:51.466Z,13.89
2022-09-10T01:00:17.875Z,14.04
2022-09-10T01:02:44.264Z,14.16
2022-09-10T01:05:11.222Z,14.36
2022-09-10T01:07:37.867Z,13.56
2022-09-10T01:10:04.556Z,13.45
2022-09-10T01:12:35.676Z,13.66
2022-09-10T01:15:02.502Z,14.03
2022-09-10T01:17:28.986Z,13.71
2022-09-10T01:19:56.014Z,13.89
2022-09-10T01:22:22.497Z,14.29
2022-09-10T01:24:49.010Z,14.32
2022-09-10T01:27:16.538Z,14.03
2022-09-10T01:29:43.106Z,13.52
2022-09-10T01:32:09.774Z,13.76
2022-09-10T01:34:36.364Z,13.98
2022-09-10T01:37:03.484Z,13.90
2022-09-10T01:39:30.157Z,13.99
2022-09-10T01:41:56.618Z,14.15
2022-09-10T01:44:23.168Z,14.42
2022-09-10T01:46:49.828Z,14.26
2022-09-10T01:49:16.596Z,14.62
2022-09-10T01:51:43.208Z,14.65
2022-09-10T01:54:09.604Z,14.70
2022-09-10T01:56:36.269Z,14.71
2022-09-10T01:59:02.888Z,14.46
2022-09-10T02:01:29.289Z,14.46
2022-09-10T02:03:56.188Z,14.49
2022-09-10T02:06:22.598Z,14.48
2022-09-10T02:08:49.285Z,14.58
2022-09-10T02:11:15.847Z,14.60
2022-09-10T02:13:42.245Z,14.58
2022-09-10T02:16:08.708Z,14.18
2022-09-10T02:18:35.601Z,14.37
2022-09-10T02:21:01.952Z,14.49
2022-09-10T02:23:28.525Z,14.27
2022-09-10T02:25:55.095Z,14.37
2022-09-10T02:28:23.552Z,14.28
2022-09-10T02:30:50.097Z,14.17
2022-09-10T02:33:16.551Z,13.72
2022-09-10T02:35:42.978Z,13.78
2022-09-10T02:38:09.526Z,13.67
2022-09-10T02:40:36.232Z,13.44
2022-09-10T02:43:02.886Z,13.32
2022-09-10T02:45:29.275Z,13.92
2022-09-10T02:47:55.833Z,14.14
2022-09-10T02:50:22.276Z,14.02
2022-09-10T02:52:48.732Z,14.22
2022-09-10T02:55:15.427Z,14.23
2022-09-10T02:57:41.911Z,14.21
2022-09-10T03:00:08.332Z,14.21
2022-09-10T03:02:35.017Z,14.22
2022-09-10T03:05:01.511Z,13.91
2022-09-10T03:07:28.122Z,13.94
2022-09-10T03:09:54.901Z,14.17
2022-09-10T03:12:22.790Z,13.79
2022-09-10T03:14:49.248Z,13.41
2022-09-10T03:17:15.853Z,13.45
2022-09-10T03:19:42.367Z,13.95
2022-09-10T03:22:11.025Z,13.46
2022-09-10T03:24:37.436Z,13.13
2022-09-10T03:27:03.894Z,13.08
2022-09-10T03:29:30.516Z,13.23
2022-09-10T03:31:57.266Z,12.73
2022-09-10T03:34:24.732Z,13.02
2022-09-10T03:36:51.128Z,12.97
2022-09-10T03:39:17.665Z,12.99
2022-09-10T03:41:44.110Z,13.32
2022-09-10T03:44:12.781Z,13.38
2022-09-10T03:46:39.345Z,13.64
2022-09-10T03:49:05.900Z,13.52
2022-09-10T03:51:32.448Z,13.23
2022-09-10T03:53:59.129Z,13.16
2022-09-10T03:56:25.527Z,13.25
2022-09-10T03:58:52.879Z,13.39
2022-09-10T04:01:19.783Z,13.42
2022-09-10T04:03:46.442Z,13.29
2022-09-10T04:06:13.334Z,13.25
2022-09-10T04:08:40.192Z,13.09
2022-09-10T04:11:06.718Z,13.34
2022-09-10T04:13:33.368Z,13.10
2022-09-10T04:16:00.132Z,13.27
2022-09-10T04:18:26.983Z,13.56
2022-09-10T04:20:53.755Z,13.13
2022-09-10T04:23:20.176Z,13.25
2022-09-10T04:25:46.640Z,13.65
2022-09-10T04:28:13.147Z,13.43
2022-09-10T04:30:39.809Z,13.03
2022-09-10T04:33:07.235Z,13.53
2022-09-10T04:35:33.648Z,13.39
2022-09-10T04:38:00.340Z,13.18
2022-09-10T04:40:27.170Z,12.80
2022-09-10T04:42:53.594Z,12.72
2022-09-10T04:45:20.482Z,12.82
2022-09-10T04:47:46.886Z,12.37
2022-09-10T04:50:13.256Z,12.74
2022-09-10T04:52:39.942Z,12.78
2022-09-10T04:55:06.422Z,12.41
2022-09-10T04:57:32.855Z,12.75
2022-09-10T04:59:59.831Z,12.50
2022-09-10T05:02:26.300Z,12.45
2022-09-10T05:04:52.962Z,12.92
2022-09-10T05:07:20.057Z,13.03
2022-09-10T05:09:46.997Z,13.37
2022-09-10T05:12:13.648Z,13.50
2022-09-10T05:14:40.464Z,13.39
2022-09-10T05:17:06.894Z,12.71
2022-09-10T05:19:33.276Z,13.52
2022-09-10T05:21:59.980Z,13.18
2022-09-10T05:24:26.425Z,13.37
2022-09-10T05:26:52.832Z,13.12
2022-09-10T05:29:19.425Z,13.22
2022-09-10T05:31:45.840Z,13.23
2022-09-10T05:34:12.367Z,12.71
2022-09-10T05:36:38.983Z,12.58
2022-09-10T05:39:05.474Z,12.15
2022-09-10T05:41:31.872Z,12.80
2022-09-10T05:43:58.290Z,12.95
2022-09-10T05:46:24.657Z,12.91
2022-09-10T05:48:51.510Z,13.10
2022-09-10T05:51:18.200Z,13.34
2022-09-10T05:53:44.551Z,13.69
2022-09-10T05:56:11.529Z,13.69
2022-09-10T05:58:38.364Z,13.46
2022-09-10T06:01:05.150Z,13.75
2022-09-10T06:03:31.775Z,13.90
2022-09-10T06:05:58.496Z,13.59
2022-09-10T06:08:24.918Z,13.74
2022-09-10T06:10:51.287Z,13.31
2022-09-10T06:13:20.812Z,12.81
2022-09-10T06:15:47.114Z,13.39
2022-09-10T06:18:13.518Z,13.62
2022-09-10T06:20:40.446Z,14.07
2022-09-10T06:23:06.872Z,13.91
2022-09-10T06:25:33.211Z,14.42
2022-09-10T06:28:00.021Z,14.00
2022-09-10T06:30:26.726Z,14.01
2022-09-10T06:32:53.251Z,13.97
2022-09-10T06:35:19.626Z,14.06
2022-09-10T06:37:46.112Z,14.16
2022-09-10T06:40:12.744Z,14.32
2022-09-10T06:42:39.583Z,14.21
2022-09-10T06:45:06.136Z,14.63
2022-09-10T06:48:19.114Z,14.65
2022-09-10T06:50:19.327Z,14.42
2022-09-10T06:52:45.624Z,14.17
2022-09-10T06:55:12.406Z,14.42
2022-09-10T06:57:38.916Z,14.40
2022-09-10T07:00:05.317Z,14.04
2022-09-10T07:02:31.986Z,14.39
2022-09-10T07:04:58.752Z,14.49
2022-09-10T07:07:25.191Z,13.78
2022-09-10T07:09:51.767Z,13.80
2022-09-10T07:12:18.573Z,13.86
2022-09-10T07:14:45.156Z,14.23
2022-09-10T07:17:11.652Z,14.31
2022-09-10T07:19:39.432Z,14.47
2022-09-10T07:22:06.563Z,14.45
2022-09-10T07:24:33.306Z,14.78
2022-09-10T07:26:59.995Z,14.95
2022-09-10T07:29:26.570Z,14.83
2022-09-10T07:31:53.526Z,14.48
2022-09-10T07:34:20.062Z,14.32
2022-09-10T07:36:46.443Z,14.30
2022-09-10T07:39:12.792Z,14.46
2022-09-10T07:41:39.411Z,14.79
2022-09-10T07:44:05.823Z,15.32
2022-09-10T07:46:32.699Z,15.23
2022-09-10T07:48:59.334Z,15.45
2022-09-10T07:51:25.707Z,15.08
2022-09-10T07:53:52.111Z,15.19
2022-09-10T07:56:18.751Z,15.03
2022-09-10T07:58:47.299Z,15.54
2022-09-10T08:01:13.728Z,15.77
2022-09-10T08:03:40.380Z,15.70
2022-09-10T08:06:06.758Z,15.36
2022-09-10T08:08:33.145Z,15.18
2022-09-10T08:10:59.711Z,15.13
2022-09-10T08:13:26.325Z,15.62
2022-09-10T08:15:52.987Z,15.38
2022-09-10T08:18:19.616Z,15.65
2022-09-10T08:20:46.016Z,15.63
2022-09-10T08:23:12.426Z,14.55
2022-09-10T08:25:38.949Z,15.45
2022-09-10T08:28:05.262Z,15.65
2022-09-10T08:30:31.629Z,15.43
2022-09-10T08:32:58.536Z,15.52
2022-09-10T08:35:24.888Z,15.14
2022-09-10T08:37:51.254Z,15.11
2022-09-10T08:40:18.050Z,15.84
2022-09-10T08:42:44.485Z,15.82
2022-09-10T08:45:11.232Z,15.63
2022-09-10T08:47:37.823Z,15.87
2022-09-10T08:50:04.230Z,16.12
2022-09-10T08:52:30.592Z,16.28
2022-09-10T08:54:57.205Z,15.92
2022-09-10T08:57:23.646Z,15.28
2022-09-10T08:59:50.257Z,15.44
2022-09-10T09:02:37.793Z,15.46
2022-09-10T09:05:03.793Z,14.96
2022-09-10T09:07:30.624Z,15.66
2022-09-10T09:09:57.159Z,15.27
2022-09-10T09:12:23.625Z,15.28
2022-09-10T09:14:50.204Z,14.98
2022-09-10T09:17:16.913Z,15.39
2022-09-10T09:19:44.668Z,15.66
2022-09-10T09:22:12.194Z,15.90
2022-09-10T09:24:38.655Z,15.32
2022-09-10T09:27:06.560Z,15.55
2022-09-10T09:29:33.292Z,15.67
2022-09-10T09:31:59.914Z,16.26
2022-09-10T09:34:26.354Z,15.99
2022-09-10T09:36:54.841Z,15.76
2022-09-10T09:39:25.324Z,16.11
2022-09-10T09:41:52.102Z,16.38
2022-09-10T09:44:18.918Z,16.47
2022-09-10T09:46:50.321Z,15.81
2022-09-10T09:49:17.046Z,15.57
2022-09-10T09:51:43.786Z,15.64
2022-09-10T09:54:46.690Z,16.05
2022-09-10T09:56:56.920Z,16.44
2022-09-10T09:59:23.295Z,16.48
2022-09-10T10:01:50.107Z,16.81
2022-09-10T10:04:16.726Z,16.65
2022-09-10T10:06:43.215Z,16.69
2022-09-10T10:09:09.634Z,16.36
2022-09-10T10:11:36.602Z,16.91
2022-09-10T10:14:04.008Z,17.03
2022-09-10T10:16:30.517Z,16.55
2022-09-10T10:18:57.596Z,16.87
2022-09-10T10:21:24.235Z,17.45
2022-09-10T10:23:50.614Z,17.54
2022-09-10T10:26:17.066Z,16.68
2022-09-10T10:28:43.459Z,17.20
2022-09-10T10:31:10.250Z,17.43
2022-09-10T10:33:37.153Z,17.31
2022-09-10T10:36:03.603Z,17.31
2022-09-10T10:38:30.235Z,17.25
2022-09-10T10:40:56.975Z,17.08
2022-09-10T10:43:23.388Z,17.41
2022-09-10T10:45:49.878Z,17.25
2022-09-10T10:48:16.463Z,17.36
2022-09-10T10:50:43.034Z,17.42
2022-09-10T10:53:09.609Z,17.00
2022-09-10T10:55:36.399Z,16.64
2022-09-10T10:58:02.769Z,17.03
2022-09-10T11:00:29.131Z,17.66
2022-09-10T11:02:55.859Z,17.94
2022-09-10T11:05:22.256Z,18.09
2022-09-10T11:07:48.644Z,18.06
2022-09-10T11:10:15.325Z,18.10
2022-09-10T11:12:42.012Z,18.14
2022-09-10T11:15:08.431Z,18.14
2022-09-10T11:17:35.242Z,18.46
2022-09-10T11:20:24.797Z,18.51
2022-09-10T11:22:48.321Z,17.85
2022-09-10T11:25:14.711Z,17.44
2022-09-10T11:27:41.247Z,17.72
2022-09-10T11:30:08.291Z,17.76
2022-09-10T11:32:35.037Z,18.09
2022-09-10T11:35:01.777Z,17.98
2022-09-10T11:37:28.668Z,18.07
2022-09-10T11:39:55.341Z,17.85
2022-09-10T11:42:22.143Z,18.00
2022-09-10T11:44:49.171Z,18.08
2022-09-10T11:47:18.530Z,17.91
2022-09-10T11:49:45.017Z,17.66
2022-09-10T11:52:12.048Z,18.23
2022-09-10T11:54:42.802Z,18.22
2022-09-10T11:57:09.256Z,18.31
2022-09-10T11:59:36.019Z,18.29
2022-09-10T12:02:02.673Z,17.89
2022-09-10T12:04:29.152Z,18.10
2022-09-10T12:06:56.785Z,18.09
2022-09-10T12:09:23.153Z,18.09
2022-09-10T12:11:49.573Z,18.15
2022-09-10T12:14:16.145Z,18.10
2022-09-10T12:16:42.566Z,18.44
2022-09-10T12:19:08.929Z,18.16
2022-09-10T12:21:35.929Z,17.79
2022-09-10T12:24:02.795Z,18.28
2022-09-10T12:26:29.146Z,18.36
2022-09-10T12:28:55.856Z,18.42
2022-09-10T12:31:22.535Z,18.47
2022-09-10T12:33:48.937Z,17.83
2022-09-10T12:36:15.357Z,17.77
2022-09-10T12:38:41.844Z,17.64
2022-09-10T12:41:08.247Z,17.83
2022-09-10T12:43:34.977Z,17.45
2022-09-10T12:46:01.482Z,17.64
2022-09-10T12:48:29.361Z,17.88
2022-09-10T12:50:56.240Z,17.23
2022-09-10T12:53:23.664Z,16.98
2022-09-10T12:55:51.143Z,17.25
2022-09-10T12:58:17.841Z,17.41
2022-09-10T13:00:44.248Z,17.85
2022-09-10T13:03:10.658Z,17.56
2022-09-10T13:05:37.576Z,17.93
2022-09-10T13:08:04.109Z,17.97
2022-09-10T13:10:30.685Z,18.11
2022-09-10T13:12:57.218Z,18.46
2022-09-10T13:15:23.880Z,18.59
2022-09-10T13:17:50.238Z,18.42
2022-09-10T13:20:16.818Z,18.51
2022-09-10T13:22:43.386Z,18.05
2022-09-10T13:25:10.057Z,18.13
2022-09-10T13:27:36.490Z,17.75
2022-09-10T13:30:03.158Z,18.09
2022-09-10T13:32:29.676Z,18.45
2022-09-10T13:34:56.503Z,18.68
2022-09-10T13:37:22.884Z,18.45
2022-09-10T13:39:49.336Z,18.36
2022-09-10T13:42:16.248Z,18.72
2022-09-10T13:44:42.754Z,18.49
2022-09-10T13:47:09.120Z,18.53
2022-09-10T13:49:35.753Z,18.76
2022-09-10T13:52:02.221Z,18.92
2022-09-10T13:54:28.678Z,18.62
2022-09-10T13:56:55.894Z,19.09
2022-09-10T13:59:22.234Z,19.37
2022-09-10T14:01:48.731Z,18.98
2022-09-10T14:04:15.498Z,18.69
2022-09-10T14:06:42.032Z,18.13
2022-09-10T14:09:08.606Z,18.07
2022-09-10T14:11:35.177Z,18.07
2022-09-10T14:14:01.591Z,17.74
2022-09-10T14:16:30.267Z,18.18
2022-09-10T14:18:56.863Z,17.65
2022-09-10T14:21:23.410Z,17.72
2022-09-10T14:23:49.780Z,17.79
2022-09-10T14:26:16.401Z,17.52
2022-09-10T14:28:42.828Z,16.52
2022-09-10T14:31:09.260Z,16.71
2022-09-10T14:33:36.026Z,16.38
2022-09-10T14:36:02.597Z,16.64
2022-09-10T14:38:29.146Z,16.76
2022-09-10T14:40:55.887Z,17.17
2022-09-10T14:43:22.247Z,17.07
2022-09-10T14:45:48.712Z,17.33
2022-09-10T14:48:15.556Z,17.48
2022-09-10T14:50:42.522Z,17.98
2022-09-10T14:53:09.021Z,18.31
2022-09-10T14:55:36.636Z,18.19
2022-09-10T14:58:03.037Z,17.35
2022-09-10T15:00:29.437Z,17.69
2022-09-10T15:02:56.107Z,18.01
2022-09-10T15:05:22.668Z,18.08
2022-09-10T15:07:49.140Z,17.88
2022-09-10T15:10:16.159Z,18.52
2022-09-10T15:12:43.243Z,18.20
2022-09-10T15:15:09.691Z,18.19
2022-09-10T15:17:36.286Z,18.23
2022-09-10T15:20:02.867Z,18.67
2022-09-10T15:22:29.307Z,18.42
2022-09-10T15:25:11.620Z,18.71
2022-09-10T15:27:38.214Z,18.94
2022-09-10T15:30:04.784Z,18.81
2022-09-10T15:32:31.222Z,17.35
2022-09-10T15:34:57.663Z,15.82
2022-09-10T15:37:24.242Z,15.81
2022-09-10T15:39:51.830Z,15.32
2022-09-10T15:42:18.495Z,16.09
2022-09-10T15:44:45.087Z,14.79
2022-09-10T15:47:12.045Z,15.68
2022-09-10T15:49:38.432Z,14.67
2022-09-10T15:52:05.044Z,14.23
2022-09-10T15:54:31.550Z,15.02
2022-09-10T15:56:58.050Z,15.06
2022-09-10T15:59:25.229Z,15.16
2022-09-10T16:01:51.653Z,15.35
2022-09-10T16:04:20.749Z,14.55
2022-09-10T16:06:47.455Z,14.87
2022-09-10T16:09:14.084Z,14.78
2022-09-10T16:11:40.533Z,15.00
2022-09-10T16:14:07.173Z,15.34
2022-09-10T16:16:33.574Z,14.07
2022-09-10T16:19:00.007Z,14.97
2022-09-10T16:21:28.231Z,15.58
2022-09-10T16:23:54.655Z,15.31
2022-09-10T16:26:21.191Z,15.35
2022-09-10T16:28:47.769Z,14.78
2022-09-10T16:31:14.282Z,14.93
2022-09-10T16:33:41.077Z,14.74
2022-09-10T16:36:07.482Z,15.17
2022-09-10T16:38:34.054Z,14.36
2022-09-10T16:41:00.609Z,14.72
2022-09-10T16:43:27.098Z,13.80
2022-09-10T16:45:53.533Z,12.94
2022-09-10T16:48:20.348Z,13.67
2022-09-10T16:50:47.216Z,13.37
2022-09-10T16:53:13.599Z,13.40
2022-09-10T16:55:40.022Z,13.65
2022-09-10T16:58:06.919Z,12.50
2022-09-10T17:00:33.265Z,13.24
2022-09-10T17:03:00.217Z,13.04
2022-09-10T17:05:27.391Z,12.07
2022-09-10T17:07:54.015Z,12.28
2022-09-10T17:10:20.489Z,12.54
2022-09-10T17:12:47.403Z,13.47
2022-09-10T17:15:14.078Z,13.80
2022-09-10T17:17:40.744Z,13.79
2022-09-10T17:20:07.311Z,15.04
2022-09-10T17:22:34.018Z,15.95
2022-09-10T17:25:00.364Z,16.54
2022-09-10T17:27:26.858Z,16.64
2022-09-10T17:29:53.312Z,16.78
2022-09-10T17:32:19.727Z,16.60
2022-09-10T17:34:48.521Z,16.58
2022-09-10T17:37:15.232Z,16.59
2022-09-10T17:39:44.889Z,16.52
2022-09-10T17:42:11.811Z,16.50
2022-09-10T17:44:38.228Z,16.59
2022-09-10T17:47:08.407Z,16.41
2022-09-10T17:49:38.997Z,16.53
2022-09-10T17:52:06.247Z,15.85
2022-09-10T17:54:33.914Z,16.25
2022-09-10T17:57:00.553Z,16.49
2022-09-10T17:59:27.123Z,16.47
2022-09-10T18:02:05.754Z,16.70
2022-09-10T18:04:32.568Z,16.64
2022-09-10T18:06:59.033Z,16.64
2022-09-10T18:09:25.591Z,16.37
2022-09-10T18:11:52.476Z,16.19
2022-09-10T18:14:19.091Z,15.57
2022-09-10T18:16:45.502Z,15.92
2022-09-10T18:19:14.328Z,15.68
2022-09-10T18:21:41.013Z,15.62
2022-09-10T18:24:08.285Z,15.67
2022-09-10T18:26:35.186Z,15.92
2022-09-10T18:29:01.641Z,15.87
2022-09-10T18:31:29.648Z,15.97
2022-09-10T18:33:57.142Z,16.09
2022-09-10T18:36:23.879Z,15.54
2022-09-10T18:38:50.587Z,15.63
2022-09-10T18:41:17.623Z,15.63
2022-09-10T18:43:44.302Z,15.77
2022-09-10T18:46:11.105Z,15.84
2022-09-10T18:48:38.323Z,16.00
2022-09-10T18:51:04.799Z,15.56
2022-09-10T18:53:31.469Z,14.73
2022-09-10T18:55:58.475Z,14.76
2022-09-10T18:58:25.160Z,14.98
2022-09-10T19:00:56.653Z,15.13
2022-09-10T19:03:25.229Z,15.39
2022-09-10T19:05:52.187Z,15.67
2022-09-10T19:08:18.955Z,15.49
2022-09-10T19:10:48.539Z,14.98
2022-09-10T19:13:15.099Z,15.46
2022-09-10T19:15:41.861Z,15.27
2022-09-10T19:18:08.762Z,15.32
2022-09-10T19:20:35.517Z,15.35
2022-09-10T19:23:02.274Z,15.08
2022-09-10T19:25:29.434Z,14.79
2022-09-10T19:27:56.250Z,14.50
2022-09-10T19:30:23.204Z,14.72
2022-09-10T19:32:50.035Z,14.24
2022-09-10T19:35:16.622Z,14.48
2022-09-10T19:37:43.299Z,14.85
2022-09-10T19:40:10.183Z,15.19
2022-09-10T19:42:37.556Z,15.04
2022-09-10T19:45:08.191Z,15.16
2022-09-10T19:47:36.990Z,15.34
2022-09-10T19:50:03.615Z,14.96
2022-09-10T19:52:30.205Z,14.93
2022-09-10T19:54:57.133Z,15.17
2022-09-10T19:57:24.010Z,15.08
2022-09-10T19:59:50.508Z,15.18
2022-09-10T20:02:17.434Z,14.81
2022-09-10T20:04:44.220Z,15.00
2022-09-10T20:07:10.722Z,14.83
2022-09-10T20:09:39.973Z,15.07
2022-09-10T20:12:06.985Z,15.40
2022-09-10T20:14:35.434Z,15.53
2022-09-10T20:17:02.304Z,15.73
2022-09-10T20:19:28.931Z,15.42
2022-09-10T20:21:55.576Z,15.67
2022-09-10T20:24:22.108Z,15.90
2022-09-10T20:26:48.881Z,15.53
2022-09-10T20:29:15.507Z,15.39
2022-09-10T20:31:42.360Z,15.39
2022-09-10T20:34:09.150Z,15.46
2022-09-10T20:36:35.587Z,15.50
2022-09-10T20:39:02.218Z,15.47
2022-09-10T20:41:29.777Z,15.78
2022-09-10T20:43:56.238Z,15.90
2022-09-10T20:46:23.487Z,15.71
2022-09-10T20:48:50.101Z,15.58
2022-09-10T20:51:17.155Z,15.46
2022-09-10T20:53:43.948Z,15.63
2022-09-10T20:56:10.412Z,15.60
2022-09-10T20:58:36.934Z,15.78
2022-09-10T21:01:05.036Z,15.76
2022-09-10T21:03:31.896Z,15.89
2022-09-10T21:05:58.402Z,16.04
2022-09-10T21:08:25.220Z,16.09
2022-09-10T21:10:52.920Z,14.86
2022-09-10T21:13:23.292Z,15.34
2022-09-10T21:15:52.479Z,15.53
2022-09-10T21:18:18.962Z,15.44
2022-09-10T21:20:45.401Z,15.37
2022-09-10T21:23:11.883Z,15.40
2022-09-10T21:25:38.316Z,15.29
2022-09-10T21:28:06.771Z,15.46
2022-09-10T21:30:34.072Z,15.13
2022-09-10T21:33:00.472Z,14.51
2022-09-10T21:35:27.002Z,14.71
2022-09-10T21:37:53.610Z,14.87
2022-09-10T21:40:20.028Z,14.90
2022-09-10T21:42:46.448Z,14.90
2022-09-10T21:45:13.066Z,14.39
2022-09-10T21:47:39.903Z,14.77
2022-09-10T21:50:06.732Z,14.93
2022-09-10T21:52:33.283Z,14.56
2022-09-10T21:54:59.847Z,14.85
2022-09-10T21:57:26.272Z,14.94
2022-09-10T21:59:53.371Z,14.93
2022-09-10T22:02:19.804Z,14.90
2022-09-10T22:04:46.260Z,14.92
2022-09-10T22:07:15.068Z,14.45
2022-09-10T22:09:42.554Z,14.14
2022-09-10T22:12:09.941Z,13.90
2022-09-10T22:14:36.801Z,13.88
2022-09-10T22:17:03.199Z,14.19
2022-09-10T22:19:30.014Z,14.18
2022-09-10T22:21:56.585Z,14.53
2022-09-10T22:24:22.964Z,14.24
2022-09-10T22:26:49.333Z,14.59
2022-09-10T22:29:16.511Z,14.22
2022-09-10T22:31:42.946Z,14.45
2022-09-10T22:34:10.201Z,14.31
2022-09-10T22:36:37.309Z,14.34
2022-09-10T22:39:03.855Z,14.26
2022-09-10T22:41:32.563Z,13.02
2022-09-10T22:44:00.149Z,13.65
2022-09-10T22:46:26.562Z,14.00
2022-09-10T22:48:53.672Z,14.20
2022-09-10T22:51:22.656Z,14.32
2022-09-10T22:53:49.093Z,14.18
2022-09-10T22:56:15.488Z,14.10
2022-09-10T22:58:42.207Z,13.98
2022-09-10T23:01:12.869Z,14.41
2022-09-10T23:03:40.017Z,13.90
2022-09-10T23:06:06.615Z,14.42
2022-09-10T23:08:36.133Z,14.25
2022-09-10T23:11:04.456Z,14.49
2022-09-10T23:13:34.628Z,14.45
2022-09-10T23:16:04.218Z,14.43
2022-09-10T23:18:31.014Z,14.63
2022-09-10T23:20:57.955Z,14.74
2022-09-10T23:23:26.188Z,14.17
2022-09-10T23:25:52.980Z,14.39
2022-09-10T23:28:23.713Z,14.37
2022-09-10T23:30:50.760Z,14.54
2022-09-10T23:33:20.131Z,14.71
2022-09-10T23:35:55.860Z,14.48
2022-09-10T23:38:24.741Z,14.43
2022-09-10T23:40:54.111Z,14.49
2022-09-10T23:43:23.571Z,14.76
2022-09-10T23:45:51.209Z,14.97
2022-09-10T23:48:20.570Z,14.61
2022-09-10T23:50:47.060Z,14.78
2022-09-10T23:53:13.831Z,14.44
2022-09-10T23:55:40.702Z,14.30
2022-09-10T23:58:07.157Z,14.53
